createdAt,value
2018-02-24T00:01:26.673Z,44.42
2018-02-24T00:03:55.700Z,40.22
2018-02-24T00:06:23.950Z,43.20
2018-02-24T00:08:52.972Z,43.40
2018-02-24T00:11:21.227Z,52.08
2018-02-24T00:13:49.483Z,39.10
2018-02-24T00:16:18.512Z,39.22
2018-02-24T00:18:46.761Z,52.62
2018-02-24T00:21:15.786Z,43.92
2018-02-24T00:23:44.063Z,44.97
2018-02-24T00:26:12.317Z,44.53
2018-02-24T00:28:40.571Z,48.05
2018-02-24T00:31:09.603Z,50.35
2018-02-24T00:33:37.856Z,47.03
2018-02-24T00:36:06.113Z,49.70
2018-02-24T00:38:35.132Z,50.85
2018-02-24T00:41:03.381Z,44.25
2018-02-24T00:43:32.407Z,51.80
2018-02-24T00:46:00.661Z,51.08
2018-02-24T00:48:29.680Z,44.20
2018-02-24T00:50:57.937Z,51.85
2018-02-24T00:53:26.194Z,53.05
2018-02-24T00:55:55.230Z,36.85
2018-02-24T00:58:23.482Z,52.50
2018-02-24T01:00:51.745Z,55.58
2018-02-24T01:03:20.754Z,48.87
2018-02-24T01:05:49.010Z,51.15
2018-02-24T01:08:18.025Z,53.85
2018-02-24T01:10:46.292Z,51.47
2018-02-24T01:13:15.305Z,70.95
2018-02-24T01:15:43.549Z,48.30
2018-02-24T01:18:12.574Z,55.97
2018-02-24T01:20:40.827Z,49.10
2018-02-24T01:23:09.851Z,56.30
2018-02-24T01:25:38.101Z,52.92
2018-02-24T01:28:06.362Z,50.30
2018-02-24T01:30:35.378Z,43.10
2018-02-24T01:33:03.638Z,50.12
2018-02-24T01:35:32.655Z,45.60
2018-02-24T01:38:00.910Z,52.00
2018-02-24T01:40:29.936Z,57.13
2018-02-24T01:42:58.194Z,47.25
2018-02-24T01:45:26.455Z,49.03
2018-02-24T01:47:55.491Z,51.95
2018-02-24T01:50:23.738Z,51.10
2018-02-24T01:52:51.986Z,60.45
2018-02-24T01:55:21.002Z,53.25
2018-02-24T01:57:49.249Z,49.05
2018-02-24T02:00:18.271Z,52.13
2018-02-24T02:02:46.519Z,57.38
2018-02-24T02:05:15.554Z,48.03
2018-02-24T02:07:43.802Z,45.85
2018-02-24T02:10:12.836Z,53.87
2018-02-24T02:12:41.092Z,58.40
2018-02-24T02:15:09.354Z,55.08
2018-02-24T02:17:37.607Z,53.25
2018-02-24T02:20:06.638Z,54.95
2018-02-24T02:22:34.883Z,54.40
2018-02-24T02:25:03.916Z,57.60
2018-02-24T02:27:32.166Z,53.47
2018-02-24T02:30:00.434Z,59.63
2018-02-24T02:32:29.454Z,53.75
2018-02-24T02:34:57.699Z,55.72
2018-02-24T02:37:26.724Z,55.05
2018-02-24T02:39:54.982Z,56.42
2018-02-24T02:42:23.252Z,52.55
2018-02-24T02:44:52.267Z,55.28
2018-02-24T02:47:20.528Z,52.90
2018-02-24T02:49:48.779Z,63.67
2018-02-24T02:52:17.803Z,55.65
2018-02-24T02:54:46.049Z,55.17
2018-02-24T02:57:15.083Z,54.53
2018-02-24T02:59:43.331Z,47.58
2018-02-24T03:02:12.359Z,65.68
2018-02-24T03:04:40.601Z,59.13
2018-02-24T03:07:08.875Z,60.40
2018-02-24T03:09:37.894Z,52.22
2018-02-24T03:12:06.146Z,69.10
2018-02-24T03:14:35.166Z,58.67
2018-02-24T03:17:03.420Z,70.40
2018-02-24T03:19:31.683Z,59.65
2018-02-24T03:22:00.693Z,63.15
2018-02-24T03:24:28.962Z,61.60
2018-02-24T03:26:57.215Z,57.05
2018-02-24T03:29:26.238Z,60.55
2018-02-24T03:31:54.485Z,62.92
2018-02-24T03:34:23.513Z,60.67
2018-02-24T03:36:51.758Z,64.18
2018-02-24T03:39:20.778Z,73.50
2018-02-24T03:41:49.043Z,70.57
2018-02-24T03:44:18.059Z,71.45
2018-02-24T03:46:46.311Z,65.95
2018-02-24T03:49:15.338Z,70.75
2018-02-24T03:51:43.587Z,75.70
2018-02-24T03:54:11.863Z,66.18
2018-02-24T03:56:40.115Z,57.30
2018-02-24T03:59:09.130Z,64.70
2018-02-24T04:01:37.386Z,73.20
2018-02-24T04:04:06.412Z,61.70
2018-02-24T04:06:34.661Z,63.95
2018-02-24T04:09:03.691Z,66.70
2018-02-24T04:11:31.947Z,62.65
2018-02-24T04:14:00.193Z,72.03
2018-02-24T04:16:29.258Z,64.40
2018-02-24T04:18:57.466Z,68.72
2018-02-24T04:21:26.488Z,62.47
2018-02-24T04:23:54.734Z,58.90
2018-02-24T04:26:23.770Z,71.87
2018-02-24T04:28:52.018Z,73.65
2018-02-24T04:31:21.050Z,74.40
2018-02-24T04:33:49.294Z,64.25
2018-02-24T04:36:17.549Z,56.10
2018-02-24T04:38:46.565Z,63.80
2018-02-24T04:41:14.833Z,72.30
2018-02-24T04:43:43.091Z,77.22
2018-02-24T04:46:12.102Z,63.28
2018-02-24T04:48:40.359Z,74.47
2018-02-24T04:51:09.375Z,68.35
2018-02-24T04:53:37.634Z,77.55
2018-02-24T04:56:06.648Z,61.03
2018-02-24T04:58:34.910Z,69.12
2018-02-24T05:01:03.931Z,67.75
2018-02-24T05:03:32.186Z,65.20
2018-02-24T05:06:00.432Z,57.90
2018-02-24T05:08:28.698Z,63.58
2018-02-24T05:10:56.944Z,75.00
2018-02-24T05:13:25.205Z,58.47
2018-02-24T05:15:53.454Z,69.62
2018-02-24T05:18:22.478Z,62.40
2018-02-24T05:20:50.730Z,75.28
2018-02-24T05:23:18.996Z,60.03
2018-02-24T05:25:48.007Z,63.58
2018-02-24T05:28:16.278Z,71.35
2018-02-24T05:30:44.526Z,62.75
2018-02-24T05:33:13.543Z,60.70
2018-02-24T05:35:41.806Z,59.03
2018-02-24T05:38:10.823Z,61.40
2018-02-24T05:40:39.082Z,79.03
2018-02-24T05:43:08.103Z,67.85
2018-02-24T05:45:36.358Z,59.67
2018-02-24T05:48:04.609Z,74.20
2018-02-24T05:50:32.860Z,65.07
2018-02-24T05:53:01.115Z,69.12
2018-02-24T05:55:29.386Z,65.50
2018-02-24T05:57:57.633Z,59.70
2018-02-24T06:00:25.900Z,73.95
2018-02-24T06:02:54.929Z,72.40
2018-02-24T06:05:23.186Z,63.47
2018-02-24T06:07:51.427Z,64.45
2018-02-24T06:10:19.686Z,79.72
2018-02-24T06:12:47.931Z,55.05
2018-02-24T06:15:16.208Z,64.97
2018-02-24T06:17:44.454Z,67.32
2018-02-24T06:20:12.714Z,79.87
2018-02-24T06:22:41.740Z,55.58
2018-02-24T06:25:09.987Z,76.87
2018-02-24T06:27:39.022Z,73.72
2018-02-24T06:30:07.279Z,78.55
2018-02-24T06:32:35.542Z,72.60
2018-02-24T06:35:03.791Z,74.07
2018-02-24T06:37:32.054Z,78.87
2018-02-24T06:40:00.305Z,60.60
2018-02-24T06:42:28.564Z,69.53
2018-02-24T06:44:56.815Z,77.28
2018-02-24T06:47:25.846Z,77.05
2018-02-24T06:49:54.100Z,61.58
2018-02-24T06:52:22.361Z,64.40
2018-02-24T06:54:51.376Z,69.57
2018-02-24T06:57:19.637Z,71.90
2018-02-24T06:59:47.896Z,77.70
2018-02-24T07:02:16.938Z,73.30
2018-02-24T07:04:45.189Z,67.32
2018-02-24T07:07:13.448Z,62.67
2018-02-24T07:09:42.458Z,71.68
2018-02-24T07:12:10.712Z,68.53
2018-02-24T07:14:39.732Z,62.17
2018-02-24T07:17:07.996Z,56.05
2018-02-24T07:19:36.262Z,62.72
2018-02-24T07:22:05.288Z,59.42
2018-02-24T07:24:33.541Z,72.07
2018-02-24T07:27:01.814Z,57.33
2018-02-24T07:29:30.077Z,61.25
2018-02-24T07:31:59.098Z,64.75
2018-02-24T07:34:27.354Z,62.00
2018-02-24T07:36:56.381Z,62.97
2018-02-24T07:39:24.625Z,65.62
2018-02-24T07:41:52.886Z,58.53
2018-02-24T07:44:21.904Z,61.42
2018-02-24T07:46:50.167Z,70.20
2018-02-24T07:49:19.180Z,57.22
2018-02-24T07:51:47.442Z,65.10
2018-02-24T07:54:15.687Z,71.78
2018-02-24T07:56:43.942Z,68.90
2018-02-24T07:59:12.199Z,59.80
2018-02-24T08:01:40.460Z,51.65
2018-02-24T08:04:08.711Z,47.50
2018-02-24T08:06:37.725Z,54.75
2018-02-24T08:09:05.978Z,57.15
2018-02-24T08:11:35.008Z,50.22
2018-02-24T08:14:03.254Z,46.00
2018-02-24T08:16:31.510Z,63.70
2018-02-24T08:19:00.534Z,60.03
2018-02-24T08:21:28.781Z,52.67
2018-02-24T08:23:57.806Z,50.50
2018-02-24T08:26:26.058Z,42.33
2018-02-24T08:28:55.089Z,41.17
2018-02-24T08:31:23.341Z,46.88
2018-02-24T08:33:51.607Z,51.22
2018-02-24T08:36:20.665Z,48.90
2018-02-24T08:38:48.943Z,43.72
2018-02-24T08:41:17.191Z,43.70
2018-02-24T08:43:45.452Z,43.13
2018-02-24T08:46:13.707Z,53.40
2018-02-24T08:48:41.961Z,54.72
2018-02-24T08:51:10.228Z,46.33
2018-02-24T08:53:38.470Z,44.38
2018-02-24T08:56:06.735Z,55.88
2018-02-24T08:58:34.981Z,44.17
2018-02-24T09:01:03.243Z,47.90
2018-02-24T09:03:32.257Z,44.95
2018-02-24T09:06:00.527Z,50.53
2018-02-24T09:08:29.539Z,41.25
2018-02-24T09:10:57.795Z,55.92
2018-02-24T09:13:26.803Z,51.55
2018-02-24T09:15:55.058Z,34.50
2018-02-24T09:18:24.075Z,38.80
2018-02-24T09:20:52.348Z,42.78
2018-02-24T09:23:20.590Z,38.83
2018-02-24T09:25:49.636Z,44.72
2018-02-24T09:28:17.888Z,33.17
2018-02-24T09:30:46.159Z,37.95
2018-02-24T09:33:15.160Z,39.78
2018-02-24T09:35:43.411Z,37.42
2018-02-24T09:38:12.439Z,34.20
2018-02-24T09:40:40.701Z,35.25
2018-02-24T09:43:08.953Z,31.55
2018-02-24T09:45:37.984Z,31.40
2018-02-24T09:48:06.238Z,36.63
2018-02-24T09:50:34.491Z,32.72
2018-02-24T09:53:03.519Z,36.13
2018-02-24T09:55:31.772Z,38.78
2018-02-24T09:58:00.798Z,33.92
2018-02-24T10:00:29.050Z,35.47
2018-02-24T10:02:57.321Z,36.95
2018-02-24T10:05:25.573Z,28.17
2018-02-24T10:07:53.842Z,31.23
2018-02-24T10:10:22.097Z,39.05
2018-02-24T10:12:50.349Z,32.95
2018-02-24T10:15:18.623Z,27.05
2018-02-24T10:17:46.858Z,30.73
2018-02-24T10:20:15.892Z,28.70
2018-02-24T10:22:44.142Z,27.85
2018-02-24T10:25:12.417Z,29.52
2018-02-24T10:27:40.668Z,27.50
2018-02-24T10:30:08.926Z,24.27
2018-02-24T10:32:37.185Z,27.37
2018-02-24T10:35:06.209Z,26.87
2018-02-24T10:37:34.473Z,31.23
2018-02-24T10:40:02.727Z,28.10
2018-02-24T10:42:30.990Z,25.88
2018-02-24T10:44:59.270Z,25.90
2018-02-24T10:47:27.525Z,22.70
2018-02-24T10:49:55.794Z,20.45
2018-02-24T10:52:24.049Z,25.12
2018-02-24T10:54:53.074Z,21.30
2018-02-24T10:57:21.338Z,27.23
2018-02-24T10:59:49.586Z,16.92
2018-02-24T11:02:18.609Z,23.05
2018-02-24T11:04:46.861Z,20.90
2018-02-24T11:07:15.892Z,26.45
2018-02-24T11:09:44.141Z,21.17
2018-02-24T11:12:12.408Z,22.00
2018-02-24T11:14:41.443Z,20.77
2018-02-24T11:17:09.697Z,24.50
2018-02-24T11:19:37.951Z,22.10
2018-02-24T11:22:06.975Z,21.67
2018-02-24T11:24:35.218Z,18.13
2018-02-24T11:27:04.246Z,18.67
2018-02-24T11:29:32.484Z,21.47
2018-02-24T11:32:00.739Z,19.10
2018-02-24T11:34:29.060Z,18.70
2018-02-24T11:36:57.244Z,21.10
2018-02-24T11:39:30.914Z,17.77
2018-02-24T11:41:59.939Z,17.80
2018-02-24T11:44:28.182Z,16.97
2018-02-24T11:46:56.427Z,19.73
2018-02-24T11:49:24.666Z,18.17
2018-02-24T11:51:52.988Z,16.00
2018-02-24T11:54:21.234Z,16.57
2018-02-24T11:56:49.484Z,15.90
2018-02-24T11:59:17.727Z,18.73
2018-02-24T12:01:45.979Z,18.37
2018-02-24T12:04:14.222Z,13.23
2018-02-24T12:06:42.467Z,18.93
2018-02-24T12:09:11.468Z,15.17
2018-02-24T12:11:40.486Z,14.20
2018-02-24T12:14:08.726Z,15.87
2018-02-24T12:16:37.734Z,15.70
2018-02-24T12:19:05.986Z,18.57
2018-02-24T12:21:34.238Z,16.40
2018-02-24T12:24:02.483Z,12.70
2018-02-24T12:26:30.733Z,14.83
2018-02-24T12:28:59.747Z,16.60
2018-02-24T12:31:28.003Z,13.87
2018-02-24T12:33:57.009Z,13.03
2018-02-24T12:36:25.258Z,13.30
2018-02-24T12:38:54.261Z,20.63
2018-02-24T12:41:22.515Z,13.83
2018-02-24T12:43:50.768Z,12.13
2018-02-24T12:46:19.022Z,10.23
2018-02-24T12:48:47.262Z,9.73
2018-02-24T12:51:16.275Z,8.90
2018-02-24T12:53:44.521Z,9.90
2018-02-24T12:56:13.538Z,9.90
2018-02-24T12:58:41.769Z,8.40
2018-02-24T13:01:10.942Z,8.93
2018-02-24T13:03:39.951Z,9.10
2018-02-24T13:06:08.203Z,10.77
2018-02-24T13:08:36.441Z,9.10
2018-02-24T13:11:04.695Z,11.30
2018-02-24T13:13:32.947Z,10.10
2018-02-24T13:16:01.183Z,10.83
2018-02-24T13:18:29.439Z,10.50
2018-02-24T13:20:58.451Z,8.90
2018-02-24T13:23:26.691Z,9.80
2018-02-24T13:25:54.926Z,11.23
2018-02-24T13:28:23.169Z,9.73
2018-02-24T13:30:51.416Z,10.50
2018-02-24T13:33:19.668Z,10.87
2018-02-24T13:35:47.909Z,11.03
2018-02-24T13:38:16.155Z,13.27
2018-02-24T13:40:45.159Z,14.50
2018-02-24T13:43:13.407Z,10.30
2018-02-24T13:45:41.647Z,13.80
2018-02-24T13:48:09.927Z,10.47
2018-02-24T13:50:38.139Z,9.70
2018-02-24T13:53:07.153Z,13.23
2018-02-24T13:55:35.399Z,12.07
2018-02-24T13:58:03.640Z,11.40
2018-02-24T14:00:31.882Z,12.10
2018-02-24T14:03:00.170Z,15.10
2018-02-24T14:08:03.777Z,15.43
2018-02-24T14:10:32.019Z,13.43
2018-02-24T14:13:01.042Z,14.87
2018-02-24T14:15:29.286Z,16.57
2018-02-24T14:17:57.543Z,16.97
2018-02-24T14:20:25.786Z,18.73
2018-02-24T14:22:54.041Z,16.80
2018-02-24T14:25:22.287Z,16.30
2018-02-24T14:27:50.538Z,17.30
2018-02-24T14:30:18.779Z,16.57
2018-02-24T14:32:47.030Z,17.90
2018-02-24T14:35:16.036Z,17.00
2018-02-24T14:37:44.286Z,17.20
2018-02-24T14:40:13.289Z,15.17
2018-02-24T14:42:42.311Z,13.70
2018-02-24T14:45:10.583Z,17.07
2018-02-24T14:47:39.579Z,15.87
2018-02-24T14:50:07.823Z,13.43
2018-02-24T14:52:36.845Z,13.83
2018-02-24T14:55:05.098Z,18.23
2018-02-24T14:57:34.109Z,16.33
2018-02-24T15:00:02.358Z,18.30
2018-02-24T15:02:31.371Z,14.43
2018-02-24T15:04:59.678Z,12.23
2018-02-24T15:07:28.637Z,16.50
2018-02-24T15:09:56.891Z,14.70
2018-02-24T15:12:25.933Z,15.23
2018-02-24T15:14:54.178Z,13.67
2018-02-24T15:17:22.433Z,17.47
2018-02-24T15:19:51.448Z,14.37
2018-02-24T15:22:20.467Z,15.33
2018-02-24T15:24:48.709Z,14.93
2018-02-24T15:27:16.962Z,13.97
2018-02-24T15:29:45.213Z,13.73
2018-02-24T15:32:13.507Z,14.40
2018-02-24T15:34:41.761Z,16.83
2018-02-24T15:37:10.010Z,10.97
2018-02-24T15:39:38.263Z,11.80
2018-02-24T15:42:07.280Z,14.30
2018-02-24T15:44:35.528Z,11.20
2018-02-24T15:47:04.538Z,12.20
2018-02-24T15:49:32.793Z,13.03
2018-02-24T15:52:01.801Z,12.50
2018-02-24T15:54:30.876Z,13.33
2018-02-24T15:56:59.883Z,12.20
2018-02-24T15:59:28.902Z,11.77
2018-02-24T16:01:57.154Z,12.43
2018-02-24T16:04:25.411Z,9.35
2018-02-24T16:06:54.421Z,12.10
2018-02-24T16:09:22.687Z,11.70
2018-02-24T16:11:51.710Z,10.73
2018-02-24T16:14:19.968Z,7.95
2018-02-24T16:16:48.976Z,9.43
2018-02-24T16:19:17.240Z,8.88
2018-02-24T16:21:45.499Z,10.23
2018-02-24T16:24:14.524Z,8.35
2018-02-24T16:26:42.769Z,10.50
2018-02-24T16:29:11.799Z,12.07
2018-02-24T16:31:40.055Z,8.55
2018-02-24T16:34:08.318Z,9.38
2018-02-24T16:36:37.321Z,11.73
2018-02-24T16:39:05.584Z,9.00
2018-02-24T16:41:34.602Z,14.63
2018-02-24T16:44:02.880Z,9.85
2018-02-24T16:46:31.138Z,13.15
2018-02-24T16:48:59.391Z,11.57
2018-02-24T16:51:27.651Z,13.13
2018-02-24T16:53:55.905Z,11.98
2018-02-24T16:56:24.181Z,11.50
2018-02-24T16:58:52.426Z,10.05
2018-02-24T17:01:20.690Z,6.60
2018-02-24T17:03:49.698Z,10.73
2018-02-24T17:06:17.954Z,9.32
2018-02-24T17:08:46.964Z,7.22
2018-02-24T17:11:15.221Z,10.60
2018-02-24T17:13:44.240Z,8.57
2018-02-24T17:16:12.498Z,11.05
2018-02-24T17:18:40.760Z,9.60
2018-02-24T17:21:09.848Z,9.35
2018-02-24T17:23:38.047Z,9.75
2018-02-24T17:26:06.286Z,9.10
2018-02-24T17:28:34.539Z,13.68
2018-02-24T17:31:02.789Z,5.87
2018-02-24T17:33:31.034Z,6.25
2018-02-24T17:36:00.044Z,5.37
2018-02-24T17:38:28.297Z,8.50
2018-02-24T17:40:57.307Z,9.43
2018-02-24T17:43:25.567Z,5.85
2018-02-24T17:45:54.588Z,5.00
2018-02-24T17:48:22.844Z,7.55
2018-02-24T17:50:51.850Z,5.00
2018-02-24T17:53:20.118Z,4.37
2018-02-24T17:55:48.358Z,8.20
2018-02-24T17:58:16.598Z,5.07
2018-02-24T18:00:44.858Z,3.65
2018-02-24T18:03:13.147Z,6.68
2018-02-24T18:05:42.136Z,4.82
2018-02-24T18:08:10.381Z,4.03
2018-02-24T18:10:39.399Z,3.58
2018-02-24T18:13:07.643Z,6.35
2018-02-24T18:15:42.591Z,4.28
2018-02-24T18:18:10.834Z,4.25
2018-02-24T18:20:39.089Z,3.72
2018-02-24T18:23:07.338Z,3.30
2018-02-24T18:25:35.581Z,3.87
2018-02-24T18:28:04.603Z,2.30
2018-02-24T18:30:32.870Z,4.62
2018-02-24T18:33:01.132Z,6.47
2018-02-24T18:35:30.130Z,6.68
2018-02-24T18:37:58.398Z,4.35
2018-02-24T18:40:27.405Z,4.18
2018-02-24T18:42:55.665Z,5.35
2018-02-24T18:45:24.682Z,3.12
2018-02-24T18:47:52.933Z,4.68
2018-02-24T18:50:21.948Z,3.40
2018-02-24T18:52:50.243Z,8.80
2018-02-24T18:55:19.219Z,2.62
2018-02-24T18:57:47.475Z,4.65
2018-02-24T19:00:15.722Z,8.88
2018-02-24T19:02:43.974Z,5.87
2018-02-24T19:05:12.219Z,3.62
2018-02-24T19:07:40.469Z,4.50
2018-02-24T19:10:09.470Z,4.57
2018-02-24T19:12:37.728Z,5.82
2018-02-24T19:15:06.747Z,3.75
2018-02-24T19:17:35.001Z,9.10
2018-02-24T19:20:04.014Z,4.15
2018-02-24T19:22:32.262Z,4.20
2018-02-24T19:25:01.315Z,4.90
2018-02-24T19:27:29.534Z,4.10
2018-02-24T19:29:58.549Z,5.60
2018-02-24T19:32:26.799Z,3.10
2018-02-24T19:34:55.819Z,4.97
2018-02-24T19:37:24.063Z,3.28
2018-02-24T19:39:52.318Z,3.87
2018-02-24T19:42:20.562Z,4.50
2018-02-24T19:44:48.815Z,6.40
2018-02-24T19:47:17.069Z,6.87
2018-02-24T19:49:45.315Z,6.07
2018-02-24T19:52:13.566Z,5.47
2018-02-24T19:54:41.813Z,3.90
2018-02-24T19:57:10.063Z,4.35
2018-02-24T19:59:38.328Z,5.05
2018-02-24T20:02:06.573Z,3.83
2018-02-24T20:04:34.810Z,5.05
2018-02-24T20:07:03.838Z,6.40
2018-02-24T20:09:32.093Z,4.82
2018-02-24T20:12:00.349Z,4.35
2018-02-24T20:14:29.359Z,5.80
2018-02-24T20:16:57.601Z,3.97
2018-02-24T20:19:25.853Z,5.07
2018-02-24T20:21:54.093Z,4.22
2018-02-24T20:24:22.346Z,6.55
2018-02-24T20:26:51.369Z,8.93
2018-02-24T20:29:19.614Z,5.03
2018-02-24T20:31:48.637Z,5.62
2018-02-24T20:34:16.882Z,4.93
2018-02-24T20:36:45.899Z,7.43
2018-02-24T20:39:14.141Z,5.32
2018-02-24T20:41:43.163Z,4.47
2018-02-24T20:44:11.406Z,9.52
2018-02-24T20:46:40.429Z,9.63
2018-02-24T20:49:08.666Z,5.80
2018-02-24T20:51:36.906Z,6.65
2018-02-24T20:54:05.151Z,4.12
2018-02-24T20:56:33.398Z,6.15
2018-02-24T20:59:02.627Z,7.03
2018-02-24T21:01:30.866Z,6.37
2018-02-24T21:03:59.118Z,5.28
2018-02-24T21:06:27.370Z,10.65
2018-02-24T21:08:55.621Z,8.25
2018-02-24T21:11:23.865Z,6.35
2018-02-24T21:13:52.122Z,8.95
2018-02-24T21:16:20.366Z,7.70
2018-02-24T21:18:48.618Z,4.75
2018-02-24T21:21:17.625Z,8.80
2018-02-24T21:23:45.877Z,3.75
2018-02-24T21:26:14.900Z,6.55
2018-02-24T21:28:43.150Z,6.97
2018-02-24T21:31:12.168Z,5.72
2018-02-24T21:33:40.431Z,7.55
2018-02-24T21:36:08.677Z,15.68
2018-02-24T21:38:36.925Z,5.47
2018-02-24T21:41:05.178Z,11.55
2018-02-24T21:43:33.422Z,4.70
2018-02-24T21:46:02.439Z,6.32
2018-02-24T21:48:30.682Z,8.02
2018-02-24T21:50:59.714Z,6.90
2018-02-24T21:53:27.961Z,10.68
2018-02-24T21:55:56.985Z,7.57
2018-02-24T21:58:25.222Z,7.40
2018-02-24T22:00:54.244Z,7.07
2018-02-24T22:03:22.485Z,6.82
2018-02-24T22:05:50.730Z,7.12
2018-02-24T22:08:18.977Z,7.72
2018-02-24T22:10:47.234Z,7.47
2018-02-24T22:13:15.482Z,9.27
2018-02-24T22:15:43.733Z,8.27
2018-02-24T22:18:11.977Z,9.63
2018-02-24T22:20:40.235Z,15.07
2018-02-24T22:23:08.486Z,7.28
2018-02-24T22:25:37.493Z,9.82
2018-02-24T22:28:06.517Z,11.02
2018-02-24T22:30:34.788Z,8.65
2018-02-24T22:33:03.033Z,6.80
2018-02-24T22:35:32.046Z,12.57
2018-02-24T22:38:00.297Z,5.95
2018-02-24T22:40:29.307Z,8.00
2018-02-24T22:42:57.555Z,7.75
2018-02-24T22:45:25.805Z,7.15
2018-02-24T22:47:59.707Z,6.80
2018-02-24T22:50:27.954Z,10.23
2018-02-24T22:52:56.209Z,9.40
2018-02-24T22:55:25.222Z,11.05
2018-02-24T22:57:53.477Z,7.80
2018-02-24T23:00:21.738Z,12.07
2018-02-24T23:02:49.992Z,8.95
2018-02-24T23:05:18.241Z,10.63
2018-02-24T23:07:46.494Z,9.27
2018-02-24T23:10:14.748Z,10.85
2018-02-24T23:12:43.765Z,8.57
2018-02-24T23:15:12.054Z,9.52
2018-02-24T23:17:41.030Z,12.90
2018-02-24T23:20:09.284Z,8.63
2018-02-24T23:22:38.293Z,7.93
2018-02-24T23:25:06.553Z,9.85
2018-02-24T23:27:35.574Z,11.20
2018-02-24T23:30:03.837Z,10.25
2018-02-24T23:32:32.077Z,9.48
2018-02-24T23:35:00.327Z,8.65
2018-02-24T23:37:28.575Z,17.62
2018-02-24T23:39:56.823Z,9.38
2018-02-24T23:42:25.842Z,10.27
2018-02-24T23:44:54.104Z,10.27
2018-02-24T23:47:22.351Z,10.10
2018-02-24T23:49:50.610Z,16.23
2018-02-24T23:52:18.860Z,9.93
2018-02-24T23:54:47.106Z,11.75
2018-02-24T23:57:15.373Z,9.38
2018-02-24T23:59:44.390Z,10.68
